JeSS Newton — WDA2941 — position and weather

sailwx.info

Track history (hours):
 
Tides and Currents Weather Stations Pressure Air Temp Water Temp Dewpoint Dewpoint Depression Visibility Wind Speed Wind Dir Waves Ship Positions

JeSS Newton

Owner: G & H Towing Company, Galveston, TX. More information available from US FCC via Universal Licensing System and Coast Guard Vessel Documentation Center.

Last reported at 2018-Jun-25 10:01 UTC. Time now 2018-Jun-25 10:00 UTC.
Position N 29°39' W 094°58'.

Length 29 m; draft 5.2 m.

Type: Tug. MMSI: 366792940.

Date/timePositionNaut miles runAvg speedWind from/ knotsBaromVisibWave heightAir tempDewpointWater temp
2018-Jun-25 10:01N 29°39' W 094°58'510.3
2018-Jun-25 09:30N 29°34' W 094°55'611.0
2018-Jun-25 08:59N 29°29' W 094°52'712.5
2018-Jun-25 08:24N 29°23' W 094°48'4 9.2
2018-Jun-25 08:00N 29°19' W 094°47'0 0.2
2018-Jun-25 07:28N 29°19' W 094°47'0 0.0
2018-Jun-25 06:58N 29°19' W 094°47'0 0.0
2018-Jun-25 06:28N 29°19' W 094°47'0 0.0
2018-Jun-25 05:58N 29°19' W 094°47'0 0.0
2018-Jun-25 05:28N 29°19' W 094°47'0 0.0
2018-Jun-25 04:55N 29°19' W 094°47'1 1.2
2018-Jun-25 04:29N 29°19' W 094°47'1 2.1
2018-Jun-25 04:01N 29°20' W 094°47'0 0.9
2018-Jun-25 03:28N 29°19' W 094°47'0 0.0
2018-Jun-25 02:58N 29°19' W 094°47'2 4.0
2018-Jun-25 02:30N 29°21' W 094°47'610.4
2018-Jun-25 01:56N 29°26' W 094°50'710.3
2018-Jun-25 01:13N 29°33' W 094°54'210.1
2018-Jun-25 01:00N 29°35' W 094°56'5 9.9
2018-Jun-25 00:30N 29°39' W 094°58'2 4.8
2018-Jun-25 00:00N 29°41' W 094°60'0 0.3
2018-Jun-24 23:30N 29°41' W 094°60'1 1.5
2018-Jun-24 23:00N 29°41' W 094°59'0 0.6
2018-Jun-24 22:30N 29°41' W 094°59'4 8.9
2018-Jun-24 22:00N 29°37' W 094°57'5 9.9
2018-Jun-24 21:30N 29°33' W 094°54'810.1
2018-Jun-24 20:41N 29°25' W 094°50'210.1
2018-Jun-24 20:30N 29°24' W 094°49'2 4.1
2018-Jun-24 20:00N 29°22' W 094°49'4 4.2
2018-Jun-24 19:01N 29°23' W 094°54'0 0.0
2018-Jun-24 18:57N 29°23' W 094°54'0 0.0
2018-Jun-24 16:57N 29°23' W 094°54'0 0.7
2018-Jun-24 16:30N 29°22' W 094°53'1 2.3
2018-Jun-24 15:58N 29°23' W 094°52'1 0.1
2018-Jun-23 22:53N 29°22' W 094°53'0 0.0
2018-Jun-23 22:31N 29°22' W 094°53'0 0.3
2018-Jun-23 22:00N 29°22' W 094°53'2 3.1
2018-Jun-23 21:28N 29°23' W 094°51'3 7.2
2018-Jun-23 21:00N 29°21' W 094°48'2 4.5
2018-Jun-23 20:30N 29°19' W 094°47'0 0.0
2018-Jun-23 19:55N 29°19' W 094°47'0 0.0
2018-Jun-23 19:25N 29°19' W 094°47'0 0.0
2018-Jun-23 18:57N 29°19' W 094°47'0 0.0
2018-Jun-23 18:25N 29°19' W 094°47'0 0.5
2018-Jun-23 17:45N 29°19' W 094°47'0 0.0
2018-Jun-23 17:30N 29°19' W 094°47'2 3.3
2018-Jun-23 16:59N 29°19' W 094°49'0 0.9
2018-Jun-23 16:29N 29°18' W 094°49'0 1.0
2018-Jun-23 16:00N 29°19' W 094°49'2 3.4
2018-Jun-23 15:30N 29°19' W 094°47'0 0.0
2018-Jun-23 14:45N 29°19' W 094°47'0 0.0
2018-Jun-23 14:07N 29°19' W 094°47'0 0.0
2018-Jun-23 13:59N 29°19' W 094°47'0 0.0
2018-Jun-23 13:22N 29°19' W 094°47'0 0.0
2018-Jun-23 12:59N 29°19' W 094°47'0 0.0
2018-Jun-23 12:31N 29°19' W 094°47'0 0.0
2018-Jun-23 12:00N 29°19' W 094°47'0 0.0
2018-Jun-23 11:28N 29°19' W 094°47'1 2.8
2018-Jun-23 11:00N 29°19' W 094°48'1 1.8
2018-Jun-23 10:30N 29°18' W 094°49'0 0.0
2018-Jun-23 10:01N 29°18' W 094°49'2 1.2
2018-Jun-23 08:15N 29°19' W 094°47'0 0.0
2018-Jun-23 07:52N 29°19' W 094°47'0 0.0
2018-Jun-23 05:58N 29°19' W 094°47'0 0.0
2018-Jun-23 05:25N 29°19' W 094°47'0 0.0
2018-Jun-23 04:58N 29°19' W 094°47'0 0.0
2018-Jun-23 04:16N 29°19' W 094°47'0 0.0
2018-Jun-23 03:52N 29°19' W 094°47'0 0.0
2018-Jun-23 03:28N 29°19' W 094°47'0 0.0
2018-Jun-23 02:58N 29°19' W 094°47'0 0.0
2018-Jun-23 02:25N 29°19' W 094°47'0 0.0
2018-Jun-23 01:43N 29°19' W 094°47'1 6.2
2018-Jun-23 01:29N 29°20' W 094°46'713.2
2018-Jun-23 00:59N 29°26' W 094°50'712.7
2018-Jun-23 00:25N 29°33' W 094°54'511.9
2018-Jun-23 00:00N 29°37' W 094°57'711.0
2018-Jun-22 23:24N 29°42' W 095°01'1 0.7
2018-Jun-22 21:55N 29°43' W 095°01'1 2.8
2018-Jun-22 21:30N 29°42' W 095°01'0 0.2
2018-Jun-22 19:51N 29°42' W 095°01'310.2
2018-Jun-22 19:30N 29°39' W 094°58'611.6
2018-Jun-22 19:00N 29°34' W 094°55'1111.7
2018-Jun-22 18:02N 29°24' W 094°49'112.4
2018-Jun-22 17:57N 29°23' W 094°49'410.1
2018-Jun-22 17:30N 29°19' W 094°47'0 0.2
2018-Jun-22 16:58N 29°19' W 094°47'0 0.0
2018-Jun-22 16:30N 29°19' W 094°47'4 7.7
2018-Jun-22 16:00N 29°22' W 094°50'3 6.3
2018-Jun-22 15:30N 29°22' W 094°53'0 0.0
2018-Jun-22 15:00N 29°22' W 094°53'1 1.8
2018-Jun-22 14:30N 29°23' W 094°52'4 7.5
2018-Jun-22 14:00N 29°22' W 094°48'3 2.0
2018-Jun-22 12:45N 29°19' W 094°47'0 0.0
2018-Jun-22 12:15N 29°19' W 094°47'0 0.0
2018-Jun-22 11:57N 29°19' W 094°47'0 0.0
2018-Jun-22 11:21N 29°19' W 094°47'0 0.0
2018-Jun-22 10:45N 29°19' W 094°47'0 0.0
2018-Jun-22 10:28N 29°19' W 094°47'3 4.7
2018-Jun-22 09:49N 29°21' W 094°44'2 1.9
2018-Jun-22 08:43N 29°20' W 094°46'1 3.9
2018-Jun-22 08:24N 29°19' W 094°47'0 0.0
2018-Jun-22 08:00N 29°19' W 094°47'0 0.0
2018-Jun-22 07:30N 29°19' W 094°47'0 0.0
2018-Jun-22 07:00N 29°19' W 094°47'0 0.0
2018-Jun-22 06:18N 29°19' W 094°47'0 0.0
2018-Jun-22 05:39N 29°19' W 094°47'0 0.0
2018-Jun-22 05:24N 29°19' W 094°47'0 0.0
2018-Jun-22 05:00N 29°19' W 094°47'0 0.0
2018-Jun-22 04:21N 29°19' W 094°47'0 0.0
2018-Jun-22 03:42N 29°19' W 094°47'0 0.0
2018-Jun-22 03:30N 29°19' W 094°47'0 0.0
2018-Jun-22 02:51N 29°19' W 094°47'0 0.7
2018-Jun-22 02:29N 29°19' W 094°47'0 0.0
2018-Jun-22 01:56N 29°19' W 094°47'0 0.0
2018-Jun-22 01:29N 29°19' W 094°47'0 0.0
2018-Jun-22 00:56N 29°19' W 094°47'0 0.0
2018-Jun-22 00:23N 29°19' W 094°47'0 0.0
2018-Jun-21 23:59N 29°19' W 094°47'0 0.0
2018-Jun-21 23:28N 29°19' W 094°47'4 7.7
2018-Jun-21 23:00N 29°22' W 094°50'3 6.8
2018-Jun-21 22:30N 29°22' W 094°53'1 2.1
2018-Jun-21 22:00N 29°23' W 094°53'510.1
2018-Jun-21 21:30N 29°21' W 094°47'2 3.1
2018-Jun-21 20:56N 29°19' W 094°47'0 0.0
2018-Jun-21 20:23N 29°19' W 094°47'0 0.0
2018-Jun-21 19:44N 29°19' W 094°47'0 0.0
2018-Jun-21 19:29N 29°19' W 094°47'1 1.4
2018-Jun-21 19:00N 29°20' W 094°47'5 8.9
2018-Jun-21 18:29N 29°22' W 094°51'2 0.9
2018-Jun-21 16:09N 29°23' W 094°53'1 6.1
2018-Jun-21 16:00N 29°22' W 094°54'1 2.2
2018-Jun-21 15:27N 29°22' W 094°55'1 2.4
2018-Jun-21 15:00N 29°22' W 094°54'0 0.0
2018-Jun-21 14:30N 29°22' W 094°54'1 1.1
2018-Jun-21 14:00N 29°22' W 094°54'0 0.4
2018-Jun-21 13:30N 29°22' W 094°53'4 8.0
2018-Jun-21 13:00N 29°22' W 094°49'3 6.4
2018-Jun-21 12:31N 29°19' W 094°47'0 0.0
2018-Jun-21 11:43N 29°19' W 094°47'0 0.0
2018-Jun-21 11:28N 29°19' W 094°47'0 0.0
2018-Jun-21 10:52N 29°19' W 094°47'0 0.0
2018-Jun-21 10:28N 29°19' W 094°47'0 0.0
2018-Jun-21 09:55N 29°19' W 094°47'0 0.0
2018-Jun-21 09:22N 29°19' W 094°47'0 0.0
2018-Jun-21 08:43N 29°19' W 094°47'0 0.0
2018-Jun-21 08:28N 29°19' W 094°47'0 0.0
2018-Jun-21 07:55N 29°19' W 094°47'0 0.0
2018-Jun-21 07:28N 29°19' W 094°47'0 0.0
2018-Jun-21 06:58N 29°19' W 094°47'0 0.0
2018-Jun-21 05:31N 29°19' W 094°47'0 0.0
2018-Jun-21 05:06N 29°19' W 094°47'0 3.5
2018-Jun-21 05:00N 29°19' W 094°47'2 3.4
2018-Jun-21 04:27N 29°18' W 094°49'0 0.9
2018-Jun-21 04:00N 29°19' W 094°49'2 3.6
2018-Jun-21 03:30N 29°19' W 094°47'0 0.0
2018-Jun-21 02:58N 29°19' W 094°47'0 0.6
2018-Jun-21 02:30N 29°19' W 094°47'0 0.0
2018-Jun-21 01:59N 29°19' W 094°47'0 0.0
2018-Jun-21 01:29N 29°19' W 094°47'0 0.0
2018-Jun-21 00:41N 29°19' W 094°47'0 0.0
2018-Jun-21 00:29N 29°19' W 094°47'0 0.0
2018-Jun-20 23:56N 29°19' W 094°47'0 0.0
2018-Jun-20 23:11N 29°19' W 094°47'0 0.0
2018-Jun-20 22:59N 29°19' W 094°47'0 0.0
2018-Jun-20 22:26N 29°19' W 094°47'0 0.6
2018-Jun-20 22:00N 29°19' W 094°47'0 0.0
2018-Jun-20 21:25N 29°19' W 094°47'0 0.0
2018-Jun-20 20:37N 29°19' W 094°47'0 0.0
2018-Jun-20 20:25N 29°19' W 094°47'0 0.0
2018-Jun-20 19:55N 29°19' W 094°47'0 0.3
2018-Jun-20 19:30N 29°19' W 094°47'5 8.2
2018-Jun-20 18:53N 29°23' W 094°51'2 3.5
2018-Jun-20 18:20N 29°23' W 094°54'0 0.1
2018-Jun-20 17:58N 29°23' W 094°54'0 0.0
2018-Jun-20 17:30N 29°23' W 094°54'510.0
2018-Jun-20 17:00N 29°21' W 094°48'3 3.6
2018-Jun-20 16:18N 29°19' W 094°47'0 0.0
2018-Jun-20 16:00N 29°19' W 094°47'0 0.0
2018-Jun-20 15:30N 29°19' W 094°47'0 0.0
2018-Jun-20 15:00N 29°19' W 094°47'0 0.2
2018-Jun-20 14:29N 29°19' W 094°47'0 0.0
2018-Jun-20 12:53N 29°19' W 094°47'18 1.8
2018-Jun-20 02:57N 29°35' W 094°56'511.1
2018-Jun-20 02:30N 29°40' W 094°59'4 5.7
2018-Jun-20 01:45N 29°44' W 095°01'0 0.3
2018-Jun-20 01:30N 29°44' W 095°01'1 1.0
2018-Jun-20 00:10N 29°42' W 095°01'1 7.3
2018-Jun-19 23:59N 29°42' W 094°60'1 2.0
2018-Jun-19 23:29N 29°41' W 095°00'0 0.2
2018-Jun-19 23:00N 29°41' W 094°60'2 4.9
2018-Jun-19 22:31N 29°39' W 094°58'2 4.0
2018-Jun-19 21:55N 29°41' W 094°59'2 0.5
2018-Jun-19 17:50N 29°42' W 095°01'2 5.4
2018-Jun-19 17:26N 29°41' W 094°59'410.4
2018-Jun-19 17:00N 29°37' W 094°57'1411.5
2018-Jun-19 15:47N 29°24' W 094°49'312.2
2018-Jun-19 15:30N 29°22' W 094°48'2 2.9
2018-Jun-19 14:52N 29°20' W 094°47'1 0.5
2018-Jun-19 13:14N 29°19' W 094°47'1 1.9
2018-Jun-19 12:58N 29°19' W 094°47'0 1.0
2018-Jun-19 12:28N 29°19' W 094°47'0 0.0
2018-Jun-19 11:58N 29°19' W 094°47'0 0.0
2018-Jun-19 11:31N 29°19' W 094°47'0 0.0
2018-Jun-19 06:28N 29°19' W 094°47'0 0.0
2018-Jun-19 05:58N 29°19' W 094°47'0 0.0
2018-Jun-19 04:04N 29°19' W 094°47'0 0.0
2018-Jun-19 03:52N 29°19' W 094°47'0 0.0
2018-Jun-19 02:40N 29°19' W 094°47'0 0.0
2018-Jun-19 00:46N 29°19' W 094°47'0 0.0
2018-Jun-19 00:22N 29°19' W 094°47'0 0.0
2018-Jun-18 23:52N 29°19' W 094°47'0 0.0
2018-Jun-18 23:10N 29°19' W 094°47'0 0.0
2018-Jun-18 22:58N 29°19' W 094°47'0 0.0
2018-Jun-18 22:28N 29°19' W 094°47'0 0.0
2018-Jun-18 21:52N 29°19' W 094°47'0 0.0
2018-Jun-18 21:28N 29°19' W 094°47'0 0.0
2018-Jun-18 20:52N 29°19' W 094°47'0 0.0
2018-Jun-18 20:28N 29°19' W 094°47'0 0.0
2018-Jun-18 19:58N 29°19' W 094°47'0 0.0
2018-Jun-18 19:28N 29°19' W 094°47'0 0.0
2018-Jun-18 18:58N 29°19' W 094°47'0 0.0
2018-Jun-18 18:16N 29°19' W 094°47'0 0.0
2018-Jun-18 17:58N 29°19' W 094°47'0 0.0
2018-Jun-18 17:28N 29°19' W 094°47'0 0.0
2018-Jun-18 16:46N 29°19' W 094°47'0 0.0
2018-Jun-18 16:16N 29°19' W 094°47'0 0.0
2018-Jun-18 15:58N 29°19' W 094°47'0 0.0
2018-Jun-18 15:19N 29°19' W 094°47'0 0.0
2018-Jun-18 14:55N 29°19' W 094°47'0 0.0
2018-Jun-18 14:25N 29°19' W 094°47'0 0.0
2018-Jun-18 13:58N 29°19' W 094°47'0 0.0
2018-Jun-18 13:28N 29°19' W 094°47'0 0.5
2018-Jun-18 13:01N 29°19' W 094°47'1 1.6
2018-Jun-18 12:11N 29°18' W 094°48'0 0.0
2018-Jun-18 11:41N 29°18' W 094°48'0 0.0
2018-Jun-18 11:20N 29°18' W 094°48'0 0.0
2018-Jun-18 10:59N 29°18' W 094°48'0 0.0
2018-Jun-18 10:29N 29°18' W 094°48'0 0.0
2018-Jun-18 09:59N 29°18' W 094°48'0 0.0
2018-Jun-18 09:29N 29°18' W 094°48'0 0.0
2018-Jun-18 08:53N 29°18' W 094°48'0 0.0
2018-Jun-18 08:29N 29°18' W 094°48'0 0.0
2018-Jun-18 07:59N 29°18' W 094°48'0 0.0
2018-Jun-18 07:29N 29°18' W 094°48'0 0.0
2018-Jun-18 06:47N 29°18' W 094°48'0 0.0
2018-Jun-18 06:05N 29°18' W 094°48'0 0.1
2018-Jun-18 05:59N 29°18' W 094°48'0 0.0
2018-Jun-18 04:05N 29°18' W 094°48'0 0.0
2018-Jun-18 03:59N 29°18' W 094°48'0 0.0
2018-Jun-18 03:26N 29°18' W 094°48'0 0.0
2018-Jun-18 02:59N 29°18' W 094°48'0 0.0
2018-Jun-18 02:29N 29°18' W 094°48'0 0.0
2018-Jun-18 01:59N 29°18' W 094°48'0 0.0
2018-Jun-18 01:29N 29°18' W 094°48'0 0.0
2018-Jun-18 00:59N 29°18' W 094°48'0 0.0
2018-Jun-17 23:57N 29°18' W 094°48'0 0.5
2018-Jun-17 23:30N 29°19' W 094°48'1 1.5
2018-Jun-17 23:00N 29°19' W 094°47'0 0.8
2018-Jun-17 22:30N 29°19' W 094°47'0 0.6
2018-Jun-17 22:01N 29°19' W 094°47'4 7.3
2018-Jun-17 21:30N 29°22' W 094°50'3 1.6
2018-Jun-17 19:20N 29°23' W 094°53'0 0.9
2018-Jun-17 18:59N 29°22' W 094°54'0 0.4
2018-Jun-17 18:26N 29°22' W 094°53'2 4.4
2018-Jun-17 18:00N 29°22' W 094°51'4 8.2
2018-Jun-17 17:30N 29°21' W 094°47'2 2.9
2018-Jun-17 16:59N 29°19' W 094°47'0 0.0
2018-Jun-17 16:29N 29°19' W 094°47'0 0.0
2018-Jun-17 15:59N 29°19' W 094°47'0 0.0
2018-Jun-17 15:29N 29°19' W 094°47'0 0.0
2018-Jun-17 13:50N 29°19' W 094°47'1 3.3
2018-Jun-17 13:26N 29°19' W 094°48'0 0.1
2018-Jun-17 13:00N 29°19' W 094°48'1 0.1
2018-Jun-17 03:20N 29°19' W 094°47'0 0.0
2018-Jun-17 02:59N 29°19' W 094°47'0 0.0
2018-Jun-17 02:29N 29°19' W 094°47'0 0.0
2018-Jun-17 01:56N 29°19' W 094°47'0 0.0
2018-Jun-17 01:23N 29°19' W 094°47'0 0.0
2018-Jun-17 00:59N 29°19' W 094°47'0 0.0
2018-Jun-17 00:29N 29°19' W 094°47'2 3.3
2018-Jun-16 23:59N 29°21' W 094°47'6 9.2
2018-Jun-16 23:23N 29°22' W 094°53'1 2.3
2018-Jun-16 23:01N 29°22' W 094°54'0 0.0
2018-Jun-16 22:30N 29°22' W 094°54'1 0.3
2018-Jun-16 19:45N 29°23' W 094°54'0 0.1
2018-Jun-16 17:26N 29°23' W 094°53'0 0.5
2018-Jun-16 16:59N 29°22' W 094°53'0 0.1
2018-Jun-16 16:31N 29°22' W 094°53'1 1.2
2018-Jun-16 16:00N 29°23' W 094°53'6 0.7
2018-Jun-16 07:40N 29°19' W 094°47'0 1.0
2018-Jun-16 07:27N 29°19' W 094°47'0 0.1
2018-Jun-16 02:58N 29°19' W 094°47'0 0.0
2018-Jun-16 00:58N 29°19' W 094°47'3 5.6
2018-Jun-16 00:30N 29°22' W 094°48'4 8.4
2018-Jun-16 00:00N 29°22' W 094°53'0 0.5
2018-Jun-15 23:30N 29°22' W 094°53'0 0.4
2018-Jun-15 23:00N 29°22' W 094°53'0 0.3
2018-Jun-15 21:27N 29°23' W 094°54'0 0.3
2018-Jun-15 20:26N 29°23' W 094°53'0 0.0
2018-Jun-15 16:39N 29°23' W 094°53'1 6.5
2018-Jun-15 16:30N 29°22' W 094°54'1 2.0
2018-Jun-15 16:00N 29°22' W 094°55'2 0.7
2018-Jun-15 13:10N 29°23' W 094°53'1 3.7
2018-Jun-15 13:01N 29°23' W 094°52'4 8.4
2018-Jun-15 12:31N 29°21' W 094°48'2 4.0
2018-Jun-15 11:58N 29°19' W 094°47'1 3.0
2018-Jun-15 11:30N 29°19' W 094°48'0 0.3
2018-Jun-15 11:00N 29°19' W 094°48'  
Track history (hours):
 
Tides and Currents Weather Stations Pressure Air Temp Water Temp Dewpoint Dewpoint Depression Visibility Wind Speed Wind Dir Waves Ship Positions

JeSS Newton

Owner: G & H Towing Company, Galveston, TX. More information available from US FCC via Universal Licensing System and Coast Guard Vessel Documentation Center.

Last reported at 2018-Jun-25 10:01 UTC. Time now 2018-Jun-25 10:00 UTC.
Position N 29°39' W 094°58'.

Length 29 m; draft 5.2 m.

Type: Tug. MMSI: 366792940.

Date/timePositionNaut miles runAvg speedWind from/ knotsBaromVisibWave heightAir tempDewpointWater temp
2018-Jun-25 10:01N 29°39' W 094°58'510.3
2018-Jun-25 09:30N 29°34' W 094°55'611.0
2018-Jun-25 08:59N 29°29' W 094°52'712.5
2018-Jun-25 08:24N 29°23' W 094°48'4 9.2
2018-Jun-25 08:00N 29°19' W 094°47'0 0.2
2018-Jun-25 07:28N 29°19' W 094°47'0 0.0
2018-Jun-25 06:58N 29°19' W 094°47'0 0.0
2018-Jun-25 06:28N 29°19' W 094°47'0 0.0
2018-Jun-25 05:58N 29°19' W 094°47'0 0.0
2018-Jun-25 05:28N 29°19' W 094°47'0 0.0
2018-Jun-25 04:55N 29°19' W 094°47'1 1.2
2018-Jun-25 04:29N 29°19' W 094°47'1 2.1
2018-Jun-25 04:01N 29°20' W 094°47'0 0.9
2018-Jun-25 03:28N 29°19' W 094°47'0 0.0
2018-Jun-25 02:58N 29°19' W 094°47'2 4.0
2018-Jun-25 02:30N 29°21' W 094°47'610.4
2018-Jun-25 01:56N 29°26' W 094°50'710.3
2018-Jun-25 01:13N 29°33' W 094°54'210.1
2018-Jun-25 01:00N 29°35' W 094°56'5 9.9
2018-Jun-25 00:30N 29°39' W 094°58'2 4.8
2018-Jun-25 00:00N 29°41' W 094°60'0 0.3
2018-Jun-24 23:30N 29°41' W 094°60'1 1.5
2018-Jun-24 23:00N 29°41' W 094°59'0 0.6
2018-Jun-24 22:30N 29°41' W 094°59'4 8.9
2018-Jun-24 22:00N 29°37' W 094°57'5 9.9
2018-Jun-24 21:30N 29°33' W 094°54'810.1
2018-Jun-24 20:41N 29°25' W 094°50'210.1
2018-Jun-24 20:30N 29°24' W 094°49'2 4.1
2018-Jun-24 20:00N 29°22' W 094°49'4 4.2
2018-Jun-24 19:01N 29°23' W 094°54'0 0.0
2018-Jun-24 18:57N 29°23' W 094°54'0 0.0
2018-Jun-24 16:57N 29°23' W 094°54'0 0.7
2018-Jun-24 16:30N 29°22' W 094°53'1 2.3
2018-Jun-24 15:58N 29°23' W 094°52'1 0.1
2018-Jun-23 22:53N 29°22' W 094°53'0 0.0
2018-Jun-23 22:31N 29°22' W 094°53'0 0.3
2018-Jun-23 22:00N 29°22' W 094°53'2 3.1
2018-Jun-23 21:28N 29°23' W 094°51'3 7.2
2018-Jun-23 21:00N 29°21' W 094°48'2 4.5
2018-Jun-23 20:30N 29°19' W 094°47'0 0.0
2018-Jun-23 19:55N 29°19' W 094°47'0 0.0
2018-Jun-23 19:25N 29°19' W 094°47'0 0.0
2018-Jun-23 18:57N 29°19' W 094°47'0 0.0
2018-Jun-23 18:25N 29°19' W 094°47'0 0.5
2018-Jun-23 17:45N 29°19' W 094°47'0 0.0
2018-Jun-23 17:30N 29°19' W 094°47'2 3.3
2018-Jun-23 16:59N 29°19' W 094°49'0 0.9
2018-Jun-23 16:29N 29°18' W 094°49'0 1.0
2018-Jun-23 16:00N 29°19' W 094°49'2 3.4
2018-Jun-23 15:30N 29°19' W 094°47'0 0.0
2018-Jun-23 14:45N 29°19' W 094°47'0 0.0
2018-Jun-23 14:07N 29°19' W 094°47'0 0.0
2018-Jun-23 13:59N 29°19' W 094°47'0 0.0
2018-Jun-23 13:22N 29°19' W 094°47'0 0.0
2018-Jun-23 12:59N 29°19' W 094°47'0 0.0
2018-Jun-23 12:31N 29°19' W 094°47'0 0.0
2018-Jun-23 12:00N 29°19' W 094°47'0 0.0
2018-Jun-23 11:28N 29°19' W 094°47'1 2.8
2018-Jun-23 11:00N 29°19' W 094°48'1 1.8
2018-Jun-23 10:30N 29°18' W 094°49'0 0.0
2018-Jun-23 10:01N 29°18' W 094°49'2 1.2
2018-Jun-23 08:15N 29°19' W 094°47'0 0.0
2018-Jun-23 07:52N 29°19' W 094°47'0 0.0
2018-Jun-23 05:58N 29°19' W 094°47'0 0.0
2018-Jun-23 05:25N 29°19' W 094°47'0 0.0
2018-Jun-23 04:58N 29°19' W 094°47'0 0.0
2018-Jun-23 04:16N 29°19' W 094°47'0 0.0
2018-Jun-23 03:52N 29°19' W 094°47'0 0.0
2018-Jun-23 03:28N 29°19' W 094°47'0 0.0
2018-Jun-23 02:58N 29°19' W 094°47'0 0.0
2018-Jun-23 02:25N 29°19' W 094°47'0 0.0
2018-Jun-23 01:43N 29°19' W 094°47'1 6.2
2018-Jun-23 01:29N 29°20' W 094°46'713.2
2018-Jun-23 00:59N 29°26' W 094°50'712.7
2018-Jun-23 00:25N 29°33' W 094°54'511.9
2018-Jun-23 00:00N 29°37' W 094°57'711.0
2018-Jun-22 23:24N 29°42' W 095°01'1 0.7
2018-Jun-22 21:55N 29°43' W 095°01'1 2.8
2018-Jun-22 21:30N 29°42' W 095°01'0 0.2
2018-Jun-22 19:51N 29°42' W 095°01'310.2
2018-Jun-22 19:30N 29°39' W 094°58'611.6
2018-Jun-22 19:00N 29°34' W 094°55'1111.7
2018-Jun-22 18:02N 29°24' W 094°49'112.4
2018-Jun-22 17:57N 29°23' W 094°49'410.1
2018-Jun-22 17:30N 29°19' W 094°47'0 0.2
2018-Jun-22 16:58N 29°19' W 094°47'0 0.0
2018-Jun-22 16:30N 29°19' W 094°47'4 7.7
2018-Jun-22 16:00N 29°22' W 094°50'3 6.3
2018-Jun-22 15:30N 29°22' W 094°53'0 0.0
2018-Jun-22 15:00N 29°22' W 094°53'1 1.8
2018-Jun-22 14:30N 29°23' W 094°52'4 7.5
2018-Jun-22 14:00N 29°22' W 094°48'3 2.0
2018-Jun-22 12:45N 29°19' W 094°47'0 0.0
2018-Jun-22 12:15N 29°19' W 094°47'0 0.0
2018-Jun-22 11:57N 29°19' W 094°47'0 0.0
2018-Jun-22 11:21N 29°19' W 094°47'0 0.0
2018-Jun-22 10:45N 29°19' W 094°47'0 0.0
2018-Jun-22 10:28N 29°19' W 094°47'3 4.7
2018-Jun-22 09:49N 29°21' W 094°44'2 1.9
2018-Jun-22 08:43N 29°20' W 094°46'1 3.9
2018-Jun-22 08:24N 29°19' W 094°47'0 0.0
2018-Jun-22 08:00N 29°19' W 094°47'0 0.0
2018-Jun-22 07:30N 29°19' W 094°47'0 0.0
2018-Jun-22 07:00N 29°19' W 094°47'0 0.0
2018-Jun-22 06:18N 29°19' W 094°47'0 0.0
2018-Jun-22 05:39N 29°19' W 094°47'0 0.0
2018-Jun-22 05:24N 29°19' W 094°47'0 0.0
2018-Jun-22 05:00N 29°19' W 094°47'0 0.0
2018-Jun-22 04:21N 29°19' W 094°47'0 0.0
2018-Jun-22 03:42N 29°19' W 094°47'0 0.0
2018-Jun-22 03:30N 29°19' W 094°47'0 0.0
2018-Jun-22 02:51N 29°19' W 094°47'0 0.7
2018-Jun-22 02:29N 29°19' W 094°47'0 0.0
2018-Jun-22 01:56N 29°19' W 094°47'0 0.0
2018-Jun-22 01:29N 29°19' W 094°47'0 0.0
2018-Jun-22 00:56N 29°19' W 094°47'0 0.0
2018-Jun-22 00:23N 29°19' W 094°47'0 0.0
2018-Jun-21 23:59N 29°19' W 094°47'0 0.0
2018-Jun-21 23:28N 29°19' W 094°47'4 7.7
2018-Jun-21 23:00N 29°22' W 094°50'3 6.8
2018-Jun-21 22:30N 29°22' W 094°53'1 2.1
2018-Jun-21 22:00N 29°23' W 094°53'510.1
2018-Jun-21 21:30N 29°21' W 094°47'2 3.1
2018-Jun-21 20:56N 29°19' W 094°47'0 0.0
2018-Jun-21 20:23N 29°19' W 094°47'0 0.0
2018-Jun-21 19:44N 29°19' W 094°47'0 0.0
2018-Jun-21 19:29N 29°19' W 094°47'1 1.4
2018-Jun-21 19:00N 29°20' W 094°47'5 8.9
2018-Jun-21 18:29N 29°22' W 094°51'2 0.9
2018-Jun-21 16:09N 29°23' W 094°53'1 6.1
2018-Jun-21 16:00N 29°22' W 094°54'1 2.2
2018-Jun-21 15:27N 29°22' W 094°55'1 2.4
2018-Jun-21 15:00N 29°22' W 094°54'0 0.0
2018-Jun-21 14:30N 29°22' W 094°54'1 1.1
2018-Jun-21 14:00N 29°22' W 094°54'0 0.4
2018-Jun-21 13:30N 29°22' W 094°53'4 8.0
2018-Jun-21 13:00N 29°22' W 094°49'3 6.4
2018-Jun-21 12:31N 29°19' W 094°47'0 0.0
2018-Jun-21 11:43N 29°19' W 094°47'0 0.0
2018-Jun-21 11:28N 29°19' W 094°47'0 0.0
2018-Jun-21 10:52N 29°19' W 094°47'0 0.0
2018-Jun-21 10:28N 29°19' W 094°47'0 0.0
2018-Jun-21 09:55N 29°19' W 094°47'0 0.0
2018-Jun-21 09:22N 29°19' W 094°47'0 0.0
2018-Jun-21 08:43N 29°19' W 094°47'0 0.0
2018-Jun-21 08:28N 29°19' W 094°47'0 0.0
2018-Jun-21 07:55N 29°19' W 094°47'0 0.0
2018-Jun-21 07:28N 29°19' W 094°47'0 0.0
2018-Jun-21 06:58N 29°19' W 094°47'0 0.0
2018-Jun-21 05:31N 29°19' W 094°47'0 0.0
2018-Jun-21 05:06N 29°19' W 094°47'0 3.5
2018-Jun-21 05:00N 29°19' W 094°47'2 3.4
2018-Jun-21 04:27N 29°18' W 094°49'0 0.9
2018-Jun-21 04:00N 29°19' W 094°49'2 3.6
2018-Jun-21 03:30N 29°19' W 094°47'0 0.0
2018-Jun-21 02:58N 29°19' W 094°47'0 0.6
2018-Jun-21 02:30N 29°19' W 094°47'0 0.0
2018-Jun-21 01:59N 29°19' W 094°47'0 0.0
2018-Jun-21 01:29N 29°19' W 094°47'0 0.0
2018-Jun-21 00:41N 29°19' W 094°47'0 0.0
2018-Jun-21 00:29N 29°19' W 094°47'0 0.0
2018-Jun-20 23:56N 29°19' W 094°47'0 0.0
2018-Jun-20 23:11N 29°19' W 094°47'0 0.0
2018-Jun-20 22:59N 29°19' W 094°47'0 0.0
2018-Jun-20 22:26N 29°19' W 094°47'0 0.6
2018-Jun-20 22:00N 29°19' W 094°47'0 0.0
2018-Jun-20 21:25N 29°19' W 094°47'0 0.0
2018-Jun-20 20:37N 29°19' W 094°47'0 0.0
2018-Jun-20 20:25N 29°19' W 094°47'0 0.0
2018-Jun-20 19:55N 29°19' W 094°47'0 0.3
2018-Jun-20 19:30N 29°19' W 094°47'5 8.2
2018-Jun-20 18:53N 29°23' W 094°51'2 3.5
2018-Jun-20 18:20N 29°23' W 094°54'0 0.1
2018-Jun-20 17:58N 29°23' W 094°54'0 0.0
2018-Jun-20 17:30N 29°23' W 094°54'510.0
2018-Jun-20 17:00N 29°21' W 094°48'3 3.6
2018-Jun-20 16:18N 29°19' W 094°47'0 0.0
2018-Jun-20 16:00N 29°19' W 094°47'0 0.0
2018-Jun-20 15:30N 29°19' W 094°47'0 0.0
2018-Jun-20 15:00N 29°19' W 094°47'0 0.2
2018-Jun-20 14:29N 29°19' W 094°47'0 0.0
2018-Jun-20 12:53N 29°19' W 094°47'18 1.8
2018-Jun-20 02:57N 29°35' W 094°56'511.1
2018-Jun-20 02:30N 29°40' W 094°59'4 5.7
2018-Jun-20 01:45N 29°44' W 095°01'0 0.3
2018-Jun-20 01:30N 29°44' W 095°01'1 1.0
2018-Jun-20 00:10N 29°42' W 095°01'1 7.3
2018-Jun-19 23:59N 29°42' W 094°60'1 2.0
2018-Jun-19 23:29N 29°41' W 095°00'0 0.2
2018-Jun-19 23:00N 29°41' W 094°60'2 4.9
2018-Jun-19 22:31N 29°39' W 094°58'2 4.0
2018-Jun-19 21:55N 29°41' W 094°59'2 0.5
2018-Jun-19 17:50N 29°42' W 095°01'2 5.4
2018-Jun-19 17:26N 29°41' W 094°59'410.4
2018-Jun-19 17:00N 29°37' W 094°57'1411.5
2018-Jun-19 15:47N 29°24' W 094°49'312.2
2018-Jun-19 15:30N 29°22' W 094°48'2 2.9
2018-Jun-19 14:52N 29°20' W 094°47'1 0.5
2018-Jun-19 13:14N 29°19' W 094°47'1 1.9
2018-Jun-19 12:58N 29°19' W 094°47'0 1.0
2018-Jun-19 12:28N 29°19' W 094°47'0 0.0
2018-Jun-19 11:58N 29°19' W 094°47'0 0.0
2018-Jun-19 11:31N 29°19' W 094°47'0 0.0
2018-Jun-19 06:28N 29°19' W 094°47'0 0.0
2018-Jun-19 05:58N 29°19' W 094°47'0 0.0
2018-Jun-19 04:04N 29°19' W 094°47'0 0.0
2018-Jun-19 03:52N 29°19' W 094°47'0 0.0
2018-Jun-19 02:40N 29°19' W 094°47'0 0.0
2018-Jun-19 00:46N 29°19' W 094°47'0 0.0
2018-Jun-19 00:22N 29°19' W 094°47'0 0.0
2018-Jun-18 23:52N 29°19' W 094°47'0 0.0
2018-Jun-18 23:10N 29°19' W 094°47'0 0.0
2018-Jun-18 22:58N 29°19' W 094°47'0 0.0
2018-Jun-18 22:28N 29°19' W 094°47'0 0.0
2018-Jun-18 21:52N 29°19' W 094°47'0 0.0
2018-Jun-18 21:28N 29°19' W 094°47'0 0.0
2018-Jun-18 20:52N 29°19' W 094°47'0 0.0
2018-Jun-18 20:28N 29°19' W 094°47'0 0.0
2018-Jun-18 19:58N 29°19' W 094°47'0 0.0
2018-Jun-18 19:28N 29°19' W 094°47'0 0.0
2018-Jun-18 18:58N 29°19' W 094°47'0 0.0
2018-Jun-18 18:16N 29°19' W 094°47'0 0.0
2018-Jun-18 17:58N 29°19' W 094°47'0 0.0
2018-Jun-18 17:28N 29°19' W 094°47'0 0.0
2018-Jun-18 16:46N 29°19' W 094°47'0 0.0
2018-Jun-18 16:16N 29°19' W 094°47'0 0.0
2018-Jun-18 15:58N 29°19' W 094°47'0 0.0
2018-Jun-18 15:19N 29°19' W 094°47'0 0.0
2018-Jun-18 14:55N 29°19' W 094°47'0 0.0
2018-Jun-18 14:25N 29°19' W 094°47'0 0.0
2018-Jun-18 13:58N 29°19' W 094°47'0 0.0
2018-Jun-18 13:28N 29°19' W 094°47'0 0.5
2018-Jun-18 13:01N 29°19' W 094°47'1 1.6
2018-Jun-18 12:11N 29°18' W 094°48'0 0.0
2018-Jun-18 11:41N 29°18' W 094°48'0 0.0
2018-Jun-18 11:20N 29°18' W 094°48'0 0.0
2018-Jun-18 10:59N 29°18' W 094°48'0 0.0
2018-Jun-18 10:29N 29°18' W 094°48'0 0.0
2018-Jun-18 09:59N 29°18' W 094°48'0 0.0
2018-Jun-18 09:29N 29°18' W 094°48'0 0.0
2018-Jun-18 08:53N 29°18' W 094°48'0 0.0
2018-Jun-18 08:29N 29°18' W 094°48'0 0.0
2018-Jun-18 07:59N 29°18' W 094°48'0 0.0
2018-Jun-18 07:29N 29°18' W 094°48'0 0.0
2018-Jun-18 06:47N 29°18' W 094°48'0 0.0
2018-Jun-18 06:05N 29°18' W 094°48'0 0.1
2018-Jun-18 05:59N 29°18' W 094°48'0 0.0
2018-Jun-18 04:05N 29°18' W 094°48'0 0.0
2018-Jun-18 03:59N 29°18' W 094°48'0 0.0
2018-Jun-18 03:26N 29°18' W 094°48'0 0.0
2018-Jun-18 02:59N 29°18' W 094°48'0 0.0
2018-Jun-18 02:29N 29°18' W 094°48'0 0.0
2018-Jun-18 01:59N 29°18' W 094°48'0 0.0
2018-Jun-18 01:29N 29°18' W 094°48'0 0.0
2018-Jun-18 00:59N 29°18' W 094°48'0 0.0
2018-Jun-17 23:57N 29°18' W 094°48'0 0.5
2018-Jun-17 23:30N 29°19' W 094°48'1 1.5
2018-Jun-17 23:00N 29°19' W 094°47'0 0.8
2018-Jun-17 22:30N 29°19' W 094°47'0 0.6
2018-Jun-17 22:01N 29°19' W 094°47'4 7.3
2018-Jun-17 21:30N 29°22' W 094°50'3 1.6
2018-Jun-17 19:20N 29°23' W 094°53'0 0.9
2018-Jun-17 18:59N 29°22' W 094°54'0 0.4
2018-Jun-17 18:26N 29°22' W 094°53'2 4.4
2018-Jun-17 18:00N 29°22' W 094°51'4 8.2
2018-Jun-17 17:30N 29°21' W 094°47'2 2.9
2018-Jun-17 16:59N 29°19' W 094°47'0 0.0
2018-Jun-17 16:29N 29°19' W 094°47'0 0.0
2018-Jun-17 15:59N 29°19' W 094°47'0 0.0
2018-Jun-17 15:29N 29°19' W 094°47'0 0.0
2018-Jun-17 13:50N 29°19' W 094°47'1 3.3
2018-Jun-17 13:26N 29°19' W 094°48'0 0.1
2018-Jun-17 13:00N 29°19' W 094°48'1 0.1
2018-Jun-17 03:20N 29°19' W 094°47'0 0.0
2018-Jun-17 02:59N 29°19' W 094°47'0 0.0
2018-Jun-17 02:29N 29°19' W 094°47'0 0.0
2018-Jun-17 01:56N 29°19' W 094°47'0 0.0
2018-Jun-17 01:23N 29°19' W 094°47'0 0.0
2018-Jun-17 00:59N 29°19' W 094°47'0 0.0
2018-Jun-17 00:29N 29°19' W 094°47'2 3.3
2018-Jun-16 23:59N 29°21' W 094°47'6 9.2
2018-Jun-16 23:23N 29°22' W 094°53'1 2.3
2018-Jun-16 23:01N 29°22' W 094°54'0 0.0
2018-Jun-16 22:30N 29°22' W 094°54'1 0.3
2018-Jun-16 19:45N 29°23' W 094°54'0 0.1
2018-Jun-16 17:26N 29°23' W 094°53'0 0.5
2018-Jun-16 16:59N 29°22' W 094°53'0 0.1
2018-Jun-16 16:31N 29°22' W 094°53'1 1.2
2018-Jun-16 16:00N 29°23' W 094°53'6 0.7
2018-Jun-16 07:40N 29°19' W 094°47'0 1.0
2018-Jun-16 07:27N 29°19' W 094°47'0 0.1
2018-Jun-16 02:58N 29°19' W 094°47'0 0.0
2018-Jun-16 00:58N 29°19' W 094°47'3 5.6
2018-Jun-16 00:30N 29°22' W 094°48'4 8.4
2018-Jun-16 00:00N 29°22' W 094°53'0 0.5
2018-Jun-15 23:30N 29°22' W 094°53'0 0.4
2018-Jun-15 23:00N 29°22' W 094°53'0 0.3
2018-Jun-15 21:27N 29°23' W 094°54'0 0.3
2018-Jun-15 20:26N 29°23' W 094°53'0 0.0
2018-Jun-15 16:39N 29°23' W 094°53'1 6.5
2018-Jun-15 16:30N 29°22' W 094°54'1 2.0
2018-Jun-15 16:00N 29°22' W 094°55'2 0.7
2018-Jun-15 13:10N 29°23' W 094°53'1 3.7
2018-Jun-15 13:01N 29°23' W 094°52'4 8.4
2018-Jun-15 12:31N 29°21' W 094°48'2 4.0
2018-Jun-15 11:58N 29°19' W 094°47'1 3.0
2018-Jun-15 11:30N 29°19' W 094°48'0 0.3
2018-Jun-15 11:00N 29°19' W 094°48'  

Dump ship's entire track history